Aeroporto :
LOGIN :

Iscrizione | Disclaimer

   EN    FR    IT 

 










Sommario :    VFR   VFR Marginale   IFR   IFR Intensivo   IFR Molto Intensivo
Visibilità : 
Base nubi : 
>= 8 km
>= 3000ft
5 / 8 km
1000 / 3000 ft
1500m / 5 km
500 / 1000 ft
800 / 1500m
200 / 500 ft
< 800m
< 200 ft
Simboli :   Temporali  Nebbia  Neve Forte  Precipitazioni Forti  Vento > 20 kt
SIGMETs :   Varie  Temporali  Ghiacco  Turbolenza  Onda orograficha  Ceneri Vulcaniche







- Altitudine del aeroporto : 90 ft
- Codice IATA : NTE
- Carte del aeroporto


LFRS - Nantes

ULTIMO METAR :
  • 200830Z AUTO 00000KT 3900 BR OVC047 07/07 Q1035 BECMG 9999 NSW

METARs OBSOLETI :
  • 200800Z AUTO 00000KT 3300 BR OVC047 06/06 Q1034 BECMG 9999 NSW
  • 200730Z AUTO VRB02KT 3100 BR OVC047 05/05 Q1034 BECMG 9999 NSW
  • 200700Z AUTO 15003KT 2300 BR OVC047 05/05 Q1034 TEMPO VV/// BECMG 9999 NSW
  • 200630Z AUTO 14003KT 100V170 2500 BR VV/// 05/04 Q1033 BECMG 9999 NSW BKN040
  • 200600Z AUTO 18003KT 3000 BR VV/// 04/03 Q1033 TEMPO 0400 FG

TAF TAF LFRS
Valido dal 20 a 06 ore il 21 a 12 ore UTC


200500Z 2006/2112 VRB03KT 3000 BR BKN040
TEMPO 2006/2008 0400 FG VV///
BECMG 2008/2010 9999 NSW
TEMPO 2100/2107 3000 BR BKN002
PROB30
TEMPO 2103/2107 0500 FG VV///
BECMG 2107/2109 06008KT
ATIS : +33 2 40 05 12 74
Nessun NOTAM noto per questo aeroporto.



MetMap, La meteo Aeronautica in un colpo d'occhio ! - Copyright ORBIFLY Dicembre 2007 - Disclaimer

ORBIFLY MET'MAP TEAM :

Programmazione e sviluppo : Alexandra Zaïnal
Concezione e sviluppo : Baudouin d'Aumeries
Co-Programmazione e sviluppo : Marc-Olivier Méhu
Supporto tecnico e logistico : Manuel Goepfert
Aiuto per la traduzione : Arnaldo La Scala

Contatto : metmap@orbifly.com




FONTI E CREDITI :

   NOAA